createdAt,value
2022-09-15T03:38:42.644Z,12.07
2022-09-15T03:44:04.195Z,12.04
2022-09-15T03:49:25.753Z,12.01
2022-09-15T03:54:48.707Z,12.02
2022-09-15T04:00:10.404Z,11.85
2022-09-15T04:05:31.159Z,11.80
2022-09-15T04:10:52.176Z,11.80
2022-09-15T04:16:14.217Z,11.76
2022-09-15T04:21:34.904Z,11.69
2022-09-15T04:26:55.653Z,11.66
2022-09-15T04:32:16.540Z,11.80
2022-09-15T04:37:39.286Z,11.94
2022-09-15T04:43:00.194Z,12.03
2022-09-15T04:48:22.326Z,12.11
2022-09-15T04:53:43.761Z,12.17
2022-09-15T04:59:04.734Z,12.25
2022-09-15T05:04:25.736Z,12.25
2022-09-15T05:09:46.877Z,12.28
2022-09-15T05:15:08.242Z,12.32
2022-09-15T05:20:29.789Z,12.36
2022-09-15T05:25:56.014Z,12.53
2022-09-15T05:31:19.962Z,12.72
2022-09-15T05:36:40.731Z,12.73
2022-09-15T05:42:01.667Z,12.76
2022-09-15T05:47:22.796Z,12.88
2022-09-15T05:52:43.759Z,13.04
2022-09-15T05:58:04.502Z,13.24
2022-09-15T06:03:30.068Z,13.35
2022-09-15T06:08:58.081Z,13.50
2022-09-15T06:14:19.970Z,13.58
2022-09-15T06:19:40.683Z,13.76
2022-09-15T06:25:01.585Z,13.90
2022-09-15T06:30:22.236Z,14.12
2022-09-15T06:35:43.278Z,14.31
2022-09-15T06:41:04.714Z,14.57
2022-09-15T06:46:26.661Z,14.78
2022-09-15T06:51:48.250Z,15.02
2022-09-15T06:57:09.152Z,14.91
2022-09-15T07:02:29.875Z,14.69
2022-09-15T07:07:50.707Z,14.54
2022-09-15T07:13:11.738Z,14.54
2022-09-15T07:18:32.993Z,14.50
2022-09-15T07:23:57.097Z,14.52
2022-09-15T07:29:18.022Z,14.59
2022-09-15T07:34:38.657Z,14.79
2022-09-15T07:40:00.058Z,15.41
2022-09-15T07:45:20.655Z,16.22
2022-09-15T07:50:41.290Z,16.21
2022-09-15T07:56:01.824Z,16.24
2022-09-15T08:01:22.820Z,16.12
2022-09-15T08:06:44.596Z,16.38
2022-09-15T08:12:06.801Z,16.25
2022-09-15T08:17:28.213Z,16.20
2022-09-15T08:22:48.603Z,16.14
2022-09-15T08:28:09.868Z,16.30
2022-09-15T08:33:30.770Z,16.71
2022-09-15T08:38:51.580Z,16.69
2022-09-15T08:44:21.352Z,16.74
2022-09-15T08:49:52.533Z,17.30
2022-09-15T08:55:21.045Z,18.01
2022-09-15T09:00:43.935Z,19.28
2022-09-15T09:06:39.019Z,23.37
2022-09-15T09:12:18.328Z,23.80
2022-09-15T09:17:57.433Z,24.52
2022-09-15T09:23:24.185Z,31.48
2022-09-15T09:28:58.855Z,33.82
2022-09-15T09:34:31.117Z,38.51
2022-09-15T09:39:52.183Z,36.31
2022-09-15T09:45:15.700Z,35.00
2022-09-15T09:50:42.829Z,32.44
2022-09-15T09:56:39.934Z,27.63
2022-09-15T10:02:18.868Z,28.17
2022-09-15T10:07:46.300Z,33.70
2022-09-15T10:13:06.801Z,28.16
2022-09-15T10:18:30.818Z,28.82
2022-09-15T10:23:51.719Z,27.26
2022-09-15T10:29:18.061Z,29.04
2022-09-15T10:34:39.160Z,28.26
2022-09-15T10:47:09.314Z,24.24
2022-09-15T10:53:07.671Z,22.26
2022-09-15T10:58:52.709Z,21.72
2022-09-15T11:04:32.533Z,22.98
2022-09-15T11:10:15.523Z,22.39
2022-09-15T11:15:49.851Z,22.82
2022-09-15T11:21:34.326Z,24.10
2022-09-15T11:26:57.611Z,21.79
2022-09-15T11:32:25.985Z,22.92
2022-09-15T11:37:50.709Z,29.29
2022-09-15T11:43:20.481Z,29.01
2022-09-15T11:49:02.767Z,27.22
2022-09-15T11:54:37.607Z,24.00
2022-09-15T12:00:14.610Z,26.97
2022-09-15T12:05:55.926Z,28.99
2022-09-15T12:11:22.579Z,27.22
2022-09-15T12:16:44.630Z,26.20
2022-09-15T12:22:14.760Z,25.93
2022-09-15T12:27:35.514Z,26.37
2022-09-15T12:32:56.632Z,24.91
2022-09-15T12:38:17.214Z,25.16
2022-09-15T12:43:38.002Z,25.46
2022-09-15T12:49:03.068Z,26.29
2022-09-15T12:54:29.643Z,26.27
2022-09-15T13:00:34.115Z,25.66
2022-09-15T13:06:14.978Z,25.83
2022-09-15T13:17:17.237Z,25.88
2022-09-15T13:22:43.879Z,25.52
2022-09-15T13:28:05.268Z,25.13
2022-09-15T13:39:49.888Z,25.65
2022-09-15T13:45:14.013Z,24.87
2022-09-15T13:50:41.995Z,24.10
2022-09-15T13:56:09.578Z,24.11
2022-09-15T14:01:34.823Z,23.98
2022-09-15T14:07:00.916Z,24.00
2022-09-15T14:12:22.683Z,23.47
2022-09-15T14:17:46.744Z,22.76
2022-09-15T14:23:16.099Z,22.42
2022-09-15T14:28:37.462Z,22.70
2022-09-15T14:33:59.225Z,22.29
2022-09-15T14:39:22.234Z,21.53
2022-09-15T14:50:26.350Z,20.90
2022-09-15T14:55:55.737Z,20.50
2022-09-15T15:01:25.976Z,19.93
2022-09-15T15:07:13.473Z,19.21
2022-09-15T15:12:50.843Z,18.41
2022-09-15T15:18:32.254Z,17.88
2022-09-15T15:23:53.830Z,17.71
2022-09-15T15:29:44.098Z,17.78
2022-09-15T15:35:05.238Z,17.78
2022-09-15T15:40:27.056Z,17.71
2022-09-15T15:46:03.365Z,17.51
2022-09-15T15:51:24.261Z,17.30
2022-09-15T15:56:45.219Z,17.23
2022-09-15T16:02:10.795Z,17.13
2022-09-15T16:07:33.497Z,17.23
2022-09-15T16:12:55.260Z,17.12
2022-09-15T16:18:16.611Z,16.89
2022-09-15T16:23:37.762Z,16.78
2022-09-15T16:28:58.609Z,16.81
2022-09-15T16:34:19.628Z,16.68
2022-09-15T16:39:40.188Z,16.67
2022-09-15T16:45:02.959Z,16.46
2022-09-15T16:50:23.667Z,16.42
2022-09-15T16:55:52.171Z,16.37
2022-09-15T17:01:18.975Z,16.23
2022-09-15T17:06:40.112Z,16.22
2022-09-15T17:12:00.967Z,16.10
2022-09-15T17:17:25.505Z,16.08
2022-09-15T17:22:48.125Z,15.99
2022-09-15T17:28:08.800Z,15.97
2022-09-15T17:33:31.627Z,15.91
2022-09-15T17:38:52.947Z,15.74
2022-09-15T17:44:14.196Z,15.72
2022-09-15T17:49:35.099Z,15.58
2022-09-15T17:54:56.362Z,15.59
2022-09-15T18:00:19.952Z,15.60
2022-09-15T18:05:40.862Z,15.57
2022-09-15T18:11:02.512Z,15.58
2022-09-15T18:16:23.534Z,15.56
2022-09-15T18:21:44.785Z,15.47
2022-09-15T18:27:06.292Z,15.41
2022-09-15T18:32:27.342Z,15.28
2022-09-15T18:37:53.667Z,15.24
2022-09-15T18:43:15.478Z,15.08
2022-09-15T18:48:36.110Z,15.05
2022-09-15T18:53:57.482Z,14.99
2022-09-15T18:59:18.350Z,14.89
2022-09-15T19:04:40.722Z,14.75
2022-09-15T19:10:01.675Z,14.70
2022-09-15T19:15:25.294Z,14.60
2022-09-15T19:20:45.937Z,14.63
2022-09-15T19:26:11.920Z,14.57
2022-09-15T19:31:32.824Z,14.60
2022-09-15T19:36:53.703Z,14.51
2022-09-15T19:47:41.329Z,14.45
2022-09-15T19:53:02.374Z,14.36
2022-09-15T19:58:23.050Z,14.31
2022-09-15T20:03:44.314Z,14.27
2022-09-15T20:09:06.352Z,14.19
2022-09-15T20:14:27.451Z,14.13
2022-09-15T20:19:48.344Z,14.07
2022-09-15T20:25:09.143Z,14.03
2022-09-15T20:30:29.850Z,13.95
2022-09-15T20:35:50.605Z,13.86
2022-09-15T20:41:12.776Z,13.79
2022-09-15T20:46:33.621Z,13.68
2022-09-15T20:51:54.451Z,13.61
2022-09-15T20:57:15.155Z,13.54
2022-09-15T21:02:35.731Z,13.49
2022-09-15T21:07:56.550Z,13.53
2022-09-15T21:13:19.129Z,13.42
2022-09-15T21:18:41.984Z,13.40
2022-09-15T21:24:06.205Z,13.38
2022-09-15T21:29:28.483Z,13.39
2022-09-15T21:34:49.400Z,13.37
2022-09-15T21:40:10.290Z,13.39
